createdAt,value
2018-07-23T00:00:49.884Z,94.50
2018-07-23T00:04:14.605Z,94.40
2018-07-23T00:07:39.317Z,94.70
2018-07-23T00:11:04.185Z,95.10
2018-07-23T00:14:28.863Z,95.80
2018-07-23T00:17:53.645Z,95.40
2018-07-23T00:21:18.293Z,95.60
2018-07-23T00:24:42.957Z,95.70
2018-07-23T00:28:07.730Z,96.10
2018-07-23T00:31:32.406Z,96.30
2018-07-23T00:34:57.117Z,95.80
2018-07-23T00:38:21.800Z,95.50
2018-07-23T00:41:46.537Z,95.60
2018-07-23T00:45:11.219Z,96.00
2018-07-23T00:48:36.081Z,95.70
2018-07-23T00:52:00.761Z,95.80
2018-07-23T00:55:25.418Z,96.10
2018-07-23T00:58:50.071Z,96.30
2018-07-23T01:02:14.834Z,96.80
2018-07-23T01:09:04.473Z,97.40
2018-07-23T01:12:32.747Z,98.00
2018-07-23T01:15:57.462Z,97.70
2018-07-23T01:19:22.303Z,97.80
2018-07-23T01:22:46.983Z,98.10
2018-07-23T01:26:11.648Z,98.20
2018-07-23T01:29:36.269Z,98.40
2018-07-23T01:34:30.026Z,98.60
2018-07-23T01:37:54.706Z,98.90
2018-07-23T01:41:19.382Z,99.40
2018-07-23T01:44:44.260Z,99.60
2018-07-23T01:48:09.020Z,99.90
2018-07-23T01:51:33.729Z,99.90
2018-07-23T01:54:58.576Z,99.90
2018-07-23T01:58:23.212Z,99.90
2018-07-23T02:01:47.856Z,99.90
2018-07-23T02:05:12.558Z,99.20
2018-07-23T02:08:37.220Z,99.20
2018-07-23T02:12:01.953Z,99.20
2018-07-23T02:18:51.059Z,97.90
2018-07-23T02:22:15.820Z,97.80
2018-07-23T02:25:40.494Z,97.30
2018-07-23T02:32:29.606Z,97.70
2018-07-23T02:35:54.302Z,98.00
2018-07-23T02:39:18.948Z,98.20
2018-07-23T02:42:43.658Z,98.20
2018-07-23T02:46:08.341Z,98.10
2018-07-23T02:49:33.024Z,97.90
2018-07-23T02:52:57.736Z,97.50
2018-07-23T02:56:22.432Z,97.60
2018-07-23T03:03:11.582Z,97.10
2018-07-23T03:06:36.271Z,96.70
2018-07-23T03:10:00.964Z,96.50
2018-07-23T03:13:25.627Z,96.40
2018-07-23T03:16:50.333Z,96.20
2018-07-23T03:20:14.983Z,96.50
2018-07-23T03:23:39.659Z,96.70
2018-07-23T03:27:04.383Z,97.10
2018-07-23T03:30:29.041Z,97.50
2018-07-23T03:33:53.741Z,98.00
2018-07-23T03:45:19.016Z,98.80
2018-07-23T03:48:43.878Z,98.70
2018-07-23T03:52:08.837Z,97.80
2018-07-23T03:55:33.591Z,97.90
2018-07-23T03:58:59.201Z,97.80
2018-07-23T04:02:23.896Z,98.10
2018-07-23T04:09:12.961Z,98.50
2018-07-23T04:20:36.982Z,98.70
2018-07-23T04:24:01.834Z,99.10
2018-07-23T04:27:26.721Z,99.00
2018-07-23T04:30:51.463Z,98.90
2018-07-23T04:34:16.192Z,98.60
2018-07-23T04:37:40.875Z,98.50
2018-07-23T04:41:06.568Z,98.20
2018-07-23T04:44:31.221Z,98.40
2018-07-23T04:47:55.869Z,98.90
2018-07-23T04:51:20.611Z,99.10
2018-07-23T04:54:45.307Z,99.50
2018-07-23T04:58:10.041Z,99.50
2018-07-23T05:01:34.842Z,99.00
2018-07-23T05:04:59.501Z,99.10
2018-07-23T05:08:24.192Z,98.90
2018-07-23T05:11:48.847Z,98.80
2018-07-23T05:15:13.548Z,98.80
2018-07-23T05:18:38.252Z,97.50
2018-07-23T05:22:03.021Z,97.40
2018-07-23T05:25:27.759Z,97.60
2018-07-23T05:28:52.530Z,97.60
2018-07-23T05:35:41.583Z,97.80
2018-07-23T05:39:09.522Z,98.00
2018-07-23T05:42:34.293Z,98.30
2018-07-23T05:53:58.871Z,98.20
2018-07-23T05:57:23.736Z,97.50
2018-07-23T06:00:48.472Z,97.10
2018-07-23T06:04:13.176Z,97.10
2018-07-23T06:07:37.908Z,97.10
2018-07-23T06:11:02.710Z,96.80
2018-07-23T06:17:51.819Z,96.40
2018-07-23T06:21:16.582Z,95.90
2018-07-23T06:24:41.368Z,95.90
2018-07-23T06:28:06.479Z,96.30
2018-07-23T06:31:31.144Z,96.00
2018-07-23T06:34:55.824Z,95.70
2018-07-23T06:38:20.551Z,95.70
2018-07-23T06:41:46.172Z,95.30
2018-07-23T06:45:10.880Z,94.40
2018-07-23T06:48:35.900Z,94.10
2018-07-23T06:52:00.763Z,93.60
2018-07-23T06:55:25.638Z,93.30
2018-07-23T06:58:50.676Z,92.70
2018-07-23T07:02:15.701Z,92.80
2018-07-23T07:05:40.347Z,92.60
2018-07-23T07:09:07.650Z,92.60
2018-07-23T07:12:32.399Z,92.50
2018-07-23T07:15:57.109Z,92.20
2018-07-23T07:19:21.804Z,92.30
2018-07-23T07:22:46.461Z,91.80
2018-07-23T07:26:11.162Z,91.50
2018-07-23T07:29:35.868Z,91.00
2018-07-23T07:33:00.522Z,90.90
2018-07-23T07:36:25.224Z,90.60
2018-07-23T07:39:49.925Z,90.70
2018-07-23T07:46:40.202Z,91.30
2018-07-23T07:50:05.372Z,91.10
2018-07-23T07:53:30.126Z,90.20
2018-07-23T07:56:54.966Z,90.00
2018-07-23T08:00:21.936Z,89.50
2018-07-23T08:03:47.713Z,89.60
2018-07-23T08:07:13.925Z,89.50
2018-07-23T08:10:39.621Z,88.10
2018-07-23T08:14:04.470Z,88.90
2018-07-23T08:17:29.238Z,86.80
2018-07-23T08:20:53.907Z,87.10
2018-07-23T08:24:18.712Z,86.00
2018-07-23T08:27:43.488Z,85.70
2018-07-23T08:31:08.113Z,85.00
2018-07-23T08:34:32.961Z,86.10
2018-07-23T08:37:57.593Z,85.40
2018-07-23T08:41:22.414Z,84.50
2018-07-23T08:44:47.130Z,83.70
2018-07-23T08:48:11.880Z,83.70
2018-07-23T08:51:36.528Z,83.50
2018-07-23T08:55:01.321Z,83.70
2018-07-23T08:58:27.005Z,82.60
2018-07-23T09:05:16.026Z,82.70
2018-07-23T09:08:40.744Z,80.10
2018-07-23T09:12:05.488Z,80.30
2018-07-23T09:18:54.508Z,79.70
2018-07-23T09:22:19.364Z,80.30
2018-07-23T09:32:40.167Z,78.30
2018-07-23T09:36:07.257Z,78.40
2018-07-23T09:39:32.301Z,77.30
2018-07-23T09:42:57.477Z,76.10
2018-07-23T09:46:23.237Z,75.20
2018-07-23T09:49:47.997Z,76.00
2018-07-23T09:53:12.753Z,76.00
2018-07-23T09:56:37.513Z,76.40
2018-07-23T10:00:02.276Z,75.40
2018-07-23T10:03:27.259Z,73.80
2018-07-23T10:06:51.895Z,73.30
2018-07-23T10:10:17.628Z,73.30
2018-07-23T10:20:31.235Z,73.80
2018-07-23T10:23:56.010Z,73.10
2018-07-23T10:27:20.785Z,72.70
2018-07-23T10:30:45.465Z,74.30
2018-07-23T10:34:10.286Z,74.40
2018-07-23T10:37:34.933Z,75.10
2018-07-23T10:40:59.741Z,75.70
2018-07-23T10:44:24.491Z,75.30
2018-07-23T10:47:49.257Z,75.70
2018-07-23T10:51:14.965Z,75.30
2018-07-23T10:54:39.625Z,75.80
2018-07-23T10:58:04.360Z,75.10
2018-07-23T11:04:57.635Z,74.30
2018-07-23T11:08:29.434Z,74.30
2018-07-23T11:11:54.229Z,72.90
2018-07-23T11:15:18.992Z,72.10
2018-07-23T11:18:43.889Z,72.40
2018-07-23T11:22:08.703Z,72.00
2018-07-23T11:28:57.868Z,70.00
2018-07-23T11:32:22.622Z,68.10
2018-07-23T11:35:47.540Z,67.40
2018-07-23T11:39:12.710Z,67.30
2018-07-23T11:42:37.421Z,67.00
2018-07-23T11:49:26.520Z,66.70
2018-07-23T11:52:51.205Z,67.60
2018-07-23T11:56:15.889Z,66.40
2018-07-23T11:59:40.590Z,66.00
2018-07-23T12:09:54.069Z,68.60
2018-07-23T12:13:18.760Z,68.70
2018-07-23T12:16:43.405Z,69.10
2018-07-23T12:20:08.085Z,69.40
2018-07-23T12:23:32.911Z,70.20
2018-07-23T12:30:21.892Z,70.70
2018-07-23T12:33:47.585Z,69.40
2018-07-23T12:44:01.856Z,69.10
2018-07-23T12:54:21.706Z,67.70
2018-07-23T12:57:46.756Z,66.60
2018-07-23T13:01:18.544Z,66.00
2018-07-23T13:08:12.876Z,64.80
2018-07-23T13:11:38.522Z,63.30
2018-07-23T13:18:28.473Z,61.40
2018-07-23T13:21:54.363Z,61.70
2018-07-23T13:25:22.176Z,60.80
2018-07-23T13:28:47.345Z,60.20
2018-07-23T13:32:14.886Z,61.50
2018-07-23T13:35:41.619Z,60.10
2018-07-23T13:39:19.861Z,59.20
2018-07-23T13:42:44.894Z,58.00
2018-07-23T13:46:10.291Z,57.80
2018-07-23T13:49:35.081Z,58.10
2018-07-23T13:56:24.149Z,58.50
2018-07-23T14:03:14.822Z,58.40
2018-07-23T14:06:39.533Z,59.30
2018-07-23T14:10:04.842Z,58.80
2018-07-23T14:13:29.472Z,58.50
2018-07-23T14:16:54.237Z,58.90
2018-07-23T14:20:18.937Z,60.90
2018-07-23T14:23:43.644Z,60.50
2018-07-23T14:27:08.433Z,59.90
2018-07-23T14:30:33.189Z,59.00
2018-07-23T14:33:57.885Z,59.30
2018-07-23T14:37:23.528Z,59.50
2018-07-23T14:40:48.216Z,59.50
2018-07-23T14:47:38.387Z,56.20
2018-07-23T14:54:36.365Z,56.50
2018-07-23T14:58:01.153Z,56.20
2018-07-23T15:01:25.893Z,56.30
2018-07-23T15:04:50.527Z,55.00
2018-07-23T15:08:15.293Z,54.40
2018-07-23T15:18:28.839Z,53.70
2018-07-23T15:21:53.592Z,52.50
2018-07-23T15:25:18.297Z,51.80
2018-07-23T15:28:42.926Z,51.50
2018-07-23T15:32:07.717Z,51.40
2018-07-23T15:35:32.417Z,51.40
2018-07-23T15:38:57.106Z,50.20
2018-07-23T15:42:21.858Z,49.90
2018-07-23T15:45:46.836Z,49.50
2018-07-23T15:49:11.256Z,48.60
2018-07-23T15:52:36.005Z,49.20
2018-07-23T15:56:00.723Z,49.20
2018-07-23T15:59:25.778Z,48.00
2018-07-23T16:02:50.501Z,48.10
2018-07-23T16:06:15.292Z,47.30
2018-07-23T16:09:40.043Z,47.80
2018-07-23T16:13:04.770Z,48.10
2018-07-23T16:16:29.534Z,48.30
2018-07-23T16:19:54.224Z,49.70
2018-07-23T16:23:19.090Z,50.10
2018-07-23T16:26:43.880Z,50.30
2018-07-23T16:30:09.621Z,49.90
2018-07-23T16:33:43.842Z,50.20
2018-07-23T16:37:17.125Z,49.40
2018-07-23T16:40:41.776Z,52.30
2018-07-23T16:44:08.260Z,53.80
2018-07-23T16:47:32.930Z,54.10
2018-07-23T16:50:57.627Z,55.00
2018-07-23T16:54:22.401Z,55.00
2018-07-23T16:57:47.169Z,55.00
2018-07-23T17:01:12.001Z,54.00
2018-07-23T17:04:36.735Z,54.00
2018-07-23T17:08:01.413Z,53.30
2018-07-23T17:14:50.550Z,53.20
2018-07-23T17:18:15.386Z,53.50
2018-07-23T17:21:40.025Z,54.30
2018-07-23T17:25:04.763Z,54.20
2018-07-23T17:28:29.487Z,54.00
2018-07-23T17:31:54.191Z,54.10
2018-07-23T17:35:18.888Z,54.90
2018-07-23T17:38:43.647Z,52.90
2018-07-23T17:42:08.324Z,54.10
2018-07-23T17:48:57.367Z,53.50
2018-07-23T17:52:22.051Z,53.80
2018-07-23T17:55:47.177Z,53.10
2018-07-23T17:59:14.751Z,53.50
2018-07-23T18:06:06.949Z,54.20
2018-07-23T18:09:35.591Z,54.80
2018-07-23T18:13:03.381Z,54.30
2018-07-23T18:16:30.835Z,54.30
2018-07-23T18:19:58.561Z,55.60
2018-07-23T18:23:23.603Z,55.10
2018-07-23T18:26:51.069Z,55.60
2018-07-23T18:30:25.693Z,56.10
2018-07-23T18:37:14.735Z,56.60
2018-07-23T18:40:39.509Z,57.30
2018-07-23T18:44:04.397Z,58.70
2018-07-23T18:47:29.243Z,58.80
2018-07-23T18:50:53.925Z,58.70
2018-07-23T18:54:20.028Z,59.50
2018-07-23T18:57:44.689Z,59.10
2018-07-23T19:09:23.959Z,60.90
2018-07-23T19:12:48.680Z,60.10
2018-07-23T19:16:13.441Z,61.10
2018-07-23T19:19:38.316Z,62.10
2018-07-23T19:23:03.145Z,62.20
2018-07-23T19:26:28.229Z,62.70
2018-07-23T19:29:53.079Z,63.20
2018-07-23T19:33:17.928Z,64.00
2018-07-23T19:36:42.834Z,63.90
2018-07-23T19:40:07.567Z,63.90
2018-07-23T19:43:32.365Z,63.90
2018-07-23T19:50:22.105Z,65.00
2018-07-23T19:53:46.974Z,65.10
2018-07-23T19:57:11.864Z,65.50
2018-07-23T20:00:36.517Z,66.20
2018-07-23T20:04:01.349Z,67.00
2018-07-23T20:07:26.000Z,67.10
2018-07-23T20:10:50.701Z,67.30
2018-07-23T20:14:15.572Z,66.90
2018-07-23T20:17:40.220Z,68.10
2018-07-23T20:21:04.942Z,68.30
2018-07-23T20:24:29.713Z,69.30
2018-07-23T20:27:55.029Z,68.60
2018-07-23T20:31:21.301Z,69.00
2018-07-23T20:42:42.432Z,71.40
2018-07-23T20:46:07.149Z,70.80
2018-07-23T20:49:31.806Z,71.30
2018-07-23T20:52:56.552Z,72.20
2018-07-23T20:56:23.932Z,72.00
2018-07-23T20:59:49.590Z,71.60
2018-07-23T21:03:15.275Z,71.80
2018-07-23T21:06:41.326Z,71.90
2018-07-23T21:16:59.939Z,71.60
2018-07-23T21:20:25.363Z,71.90
2018-07-23T21:27:17.322Z,72.90
2018-07-23T21:30:42.245Z,73.20
2018-07-23T21:34:07.206Z,74.20
2018-07-23T21:37:31.971Z,74.30
2018-07-23T21:40:57.393Z,74.40
2018-07-23T21:44:23.931Z,75.10
2018-07-23T21:51:13.982Z,76.10
2018-07-23T21:54:39.772Z,76.20
2018-07-23T21:58:04.566Z,75.70
2018-07-23T22:04:54.410Z,76.70
2018-07-23T22:11:46.964Z,77.10
2018-07-23T22:15:13.068Z,77.30
2018-07-23T22:18:38.898Z,78.90
2018-07-23T22:22:04.963Z,78.70
2018-07-23T22:25:31.266Z,79.30
2018-07-23T22:28:56.055Z,78.80
2018-07-23T22:32:20.716Z,78.60
2018-07-23T22:35:47.699Z,79.10
2018-07-23T22:39:13.421Z,79.70
2018-07-23T22:42:39.116Z,79.30
2018-07-23T22:49:28.341Z,79.80
2018-07-23T22:56:17.722Z,80.10
2018-07-23T22:59:42.533Z,80.90
2018-07-23T23:03:07.371Z,81.60
2018-07-23T23:06:32.360Z,81.50
2018-07-23T23:09:57.121Z,82.00
2018-07-23T23:13:21.845Z,82.10
2018-07-23T23:20:11.088Z,83.60
2018-07-23T23:27:00.301Z,82.80
2018-07-23T23:30:25.312Z,82.40
2018-07-23T23:33:50.074Z,83.00
2018-07-23T23:37:14.780Z,83.70
2018-07-23T23:40:39.521Z,83.70
2018-07-23T23:47:28.552Z,84.10
2018-07-23T23:50:53.215Z,84.60
2018-07-23T23:54:17.900Z,85.30
2018-07-23T23:57:42.579Z,85.90
